Home > Products > Valid Products > TAF

000
FTUS44 KLCH 030500
TAFARA
TAF
KARA 030520Z 0306/0406 VRB03KT P6SM FEW015 OVC250
      TEMPO 0310/0313 5SM BR
     FM031600 VRB06KT P6SM VCSH SCT030 PROB30 0318/0323 3SM SHRA
      BKN035
     FM040100 00000KT P6SM SCT040 BKN200=



000
FTUS44 KLCH 030500
TAFLCH
TAF
KLCH 030520Z 0306/0406 VRB03KT P6SM FEW015 BKN200
     FM031700 14008KT P6SM VCSH SCT035
     FM032300 VRB03KT P6SM FEW040 SCT200=



000
FTUS44 KLCH 030500
TAFBPT
TAF
KBPT 030520Z 0306/0406 VRB04KT P6SM FEW020 BKN200
     FM031700 14010KT P6SM VCSH SCT035
     FM040000 VRB04KT P6SM FEW040 SCT200=



000
FTUS44 KLCH 030500
TAFAEX
TAF
KAEX 030520Z 0306/0406 VRB03KT P6SM SCT009 OVC250
     FM030800 00000KT 5SM BR BKN009
      TEMPO 0310/0312 2SM BR OVC004
     FM031300 VRB04KT P6SM SCT012
     FM031800 15006KT P6SM VCSH BKN035
     FM040100 VRB03KT P6SM SCT040 BKN200=



000
FTUS44 KLCH 030500
TAFLFT
TAF
KLFT 030520Z 0306/0406 00000KT P6SM FEW015 OVC250
     FM031600 VRB04KT P6SM VCSH SCT030 PROB30 0318/0323 3SM SHRA
      BKN035
     FM040100 00000KT P6SM SCT040 BKN200=



000
FTUS44 KLCH 022300
TAFLCH
TAF
KLCH 022326Z 0300/0324 16004KT P6SM FEW025 BKN200
     FM031700 14008KT P6SM VCSH SCT035=



000
FTUS44 KLCH 022300
TAFAEX
TAF
KAEX 022326Z 0300/0324 VRB06KT P6SM VCTS SCT035CB OVC200
     FM030200 VRB03KT P6SM BKN200
     FM030900 00000KT 5SM BR FEW012
      TEMPO 0310/0312 2SM BR
     FM031300 14004KT P6SM SCT025
     FM031800 15007KT P6SM VCSH BKN035 PROB30 0320/0324 3SM SHRA
      BKN025=



000
FTUS44 KLCH 022300
TAFBPT
TAF
KBPT 022326Z 0300/0324 16008KT P6SM FEW030 BKN200
     FM031700 14010KT P6SM VCSH SCT035=



000
FTUS44 KLCH 022300
TAFARA
TAF
KARA 022326Z 0300/0324 15005KT P6SM FEW025 OVC250
     FM031600 14008KT P6SM VCSH SCT030 PROB30 0318/0322 3SM SHRA
      BKN035=



000
FTUS44 KLCH 022300
TAFLFT
TAF
KLFT 022326Z 0300/0324 VRB03KT P6SM FEW025 OVC250
     FM031600 13006KT P6SM VCSH SCT030 PROB30 0318/0322 3SM SHRA
      BKN035=



000
FTUS44 KLCH 022200 AAA
TAFBPT
TAF AMD
KBPT 022219Z 0222/0318 16013KT P6SM VCSH SCT030
     FM030300 15007KT P6SM BKN250
     FM030900 10004KT P6SM OVC250
     FM031200 07004KT P6SM VCSH SCT025=



000
FTUS44 KLCH 022000 AAA
TAFLFT
TAF AMD
KLFT 022017Z 0220/0318 18009KT P6SM VCTS SCT040CB
     FM030000 16003KT P6SM OVC250
     FM030900 00000KT P6SM BKN250=



000
FTUS44 KLCH 022000 AAA
TAFARA
TAF AMD
KARA 022016Z 0220/0318 20013G18KT P6SM VCTS SCT035CB
     FM030000 16007KT P6SM BKN250
     FM031200 09003KT P6SM VCSH SCT025=



000
FTUS44 KLCH 021700
TAFLFT
TAF
KLFT 021720Z 0218/0318 17012KT P6SM VCTS SCT025CB
      TEMPO 0220/0224 5SM -TSRA BKN025CB
     FM030000 16003KT P6SM OVC250
     FM030900 00000KT P6SM BKN250=



000
FTUS44 KLCH 021700
TAFBPT
TAF
KBPT 021720Z 0218/0318 17013KT P6SM VCTS SCT028CB
      TEMPO 0221/0224 5SM -TSRA BKN025CB
     FM030300 15007KT P6SM BKN250
     FM030900 10004KT P6SM OVC250
     FM031200 07004KT P6SM VCSH SCT025=



000
FTUS44 KLCH 021700
TAFAEX
TAF
KAEX 021720Z 0218/0318 20009KT P6SM VCTS SCT025CB
      TEMPO 0220/0224 5SM -TSRA BKN025CB
     FM030200 16006KT P6SM BKN250
     FM030900 00000KT 5SM BR OVC250
     FM031300 00000KT P6SM SCT025=



000
FTUS44 KLCH 021700
TAFARA
TAF
KARA 021720Z 0218/0318 21007KT P6SM VCTS SCT025CB
      TEMPO 0218/0221 6SM -TSRA BKN025CB
     FM030000 15003KT P6SM BKN250
     FM031200 09003KT P6SM VCSH SCT025=



000
FTUS44 KLCH 021700
TAFLCH
TAF
KLCH 021720Z 0218/0318 19007KT P6SM VCTS SCT025CB
     FM030100 15003KT P6SM FEW025 BKN200
     FM031200 09003KT P6SM VCSH SCT025=



000
FTUS44 KLCH 021500 AAB
TAFARA
TAF AMD
KARA 021527Z 0215/0312 17008KT P6SM VCSH FEW021
     FM021800 17010KT P6SM VCTS SCT030CB BKN050
     FM030200 VRB03KT P6SM FEW060 BKN200=



000
FTUS44 KLCH 021500 AAC
TAFAEX
TAF AMD
KAEX 021526Z 0215/0312 15007KT P6SM BKN023
     FM021900 17009KT P6SM VCTS SCT030CB BKN050
      TEMPO 0220/0224 5SM -TSRA BKN025CB
     FM030200 16003KT P6SM FEW060 BKN200=



000
FTUS44 KLCH 021500 AAB
TAFLFT
TAF AMD
KLFT 021524Z 0215/0312 17008KT P6SM VCSH SCT015
     FM021800 18008KT P6SM VCTS SCT025CB BKN050
      TEMPO 0220/0224 5SM -TSRA BKN025CB
     FM030100 VRB03KT P6SM FEW060 BKN200=



000
FTUS44 KLCH 021400 AAB
TAFAEX
TAF AMD
KAEX 021431Z 0215/0312 14006KT P6SM OVC005
     FM021500 15005KT P6SM SCT005 BKN050
     FM021900 17009KT P6SM VCTS SCT030CB BKN050
      TEMPO 0220/0224 5SM -TSRA BKN025CB
     FM030200 16003KT P6SM FEW060 BKN200=



000
FTUS44 KLCH 021400 AAA
TAFBPT
TAF AMD
KBPT 021411Z 0214/0312 17011G15KT P6SM VCSH FEW019 SCT045
     FM021800 14012KT P6SM VCTS SCT025CB BKN050
      TEMPO 0221/0224 5SM -TSRA BKN025CB
     FM030200 14004KT P6SM FEW060 BKN200=



000
FTUS44 KLCH 021300 AAA
TAFLFT
TAF AMD
KLFT 021300Z 0213/0312 16003KT P6SM FEW005 SCT020
     FM021400 17004KT P6SM VCSH SCT015 SCT035
     FM021800 18008KT P6SM VCTS SCT030CB BKN050
     FM030100 VRB03KT P6SM FEW060 BKN200=



000
FTUS44 KLCH 021200 AAA
TAFARA
TAF AMD
KARA 021259Z 0213/0312 VRB03KT P6SM SCT005 SCT020
     FM021400 15005KT P6SM VCSH SCT015 SCT035
     FM021800 17010KT P6SM VCTS SCT030CB BKN050
     FM030100 VRB03KT P6SM FEW060 BKN200=



000
FTUS44 KLCH 021200 AAA
TAFAEX
TAF AMD
KAEX 021222Z 0212/0312 14005KT 3SM BR OVC003
      TEMPO 0212/0214 1/2SM FG VV002
     FM021400 15005KT 6SM BR SCT008 BKN020
     FM021500 17007KT P6SM SCT035
     FM021900 17009KT P6SM VCTS SCT030CB BKN050 PROB30 0221/0301 3SM
      TSRA BKN025CB
     FM030200 16003KT P6SM FEW060 BKN200=



000
FTUS44 KLCH 021100
TAFARA
TAF
KARA 021128Z 0212/0312 VRB03KT P6SM SCT002
      TEMPO 0212/0214 4SM BR BKN002
     FM021400 15005KT P6SM VCSH SCT015 SCT035
     FM021800 17010KT P6SM VCTS SCT030CB BKN050 PROB30 0221/0224 3SM
      TSRA BKN025CB
     FM030100 VRB03KT P6SM FEW060 BKN200=



000
FTUS44 KLCH 021100
TAFBPT
TAF
KBPT 021128Z 0212/0312 16005KT P6SM VCSH SCT020 SCT100
     FM021500 15010KT P6SM VCSH SCT025 SCT035
     FM021800 14012KT P6SM VCTS SCT030CB BKN050 PROB30 0221/0224 3SM
      TSRA BKN025CB
     FM030100 14004KT P6SM FEW060 BKN200=



000
FTUS44 KLCH 021100
TAFLCH
TAF
KLCH 021128Z 0212/0312 13003KT P6SM VCSH SCT020 SCT100
      TEMPO 0212/0214 BKN025
     FM021400 15007KT P6SM VCSH SCT025 SCT035
     FM021800 16010KT P6SM VCTS SCT030CB BKN050 PROB30 0221/0224 3SM
      TSRA BKN025CB
     FM030100 VRB03KT P6SM FEW060 BKN200=



000
FTUS44 KLCH 021100
TAFLFT
TAF
KLFT 021128Z 0212/0312 VRB03KT P6SM SCT002
      TEMPO 0212/0214 4SM BR BKN002
     FM021400 17004KT P6SM VCSH SCT015 SCT035
     FM021800 18008KT P6SM VCTS SCT030CB BKN050 PROB30 0221/0224 3SM
      TSRA BKN025CB
     FM030100 VRB03KT P6SM FEW060 BKN200=



000
FTUS44 KLCH 021100
TAFAEX
TAF
KAEX 021128Z 0212/0312 14005KT 4SM BR OVC003
      TEMPO 0212/0214 1SM BR
     FM021400 15005KT 6SM BR SCT008 BKN020
     FM021500 17007KT P6SM SCT035
     FM021900 17009KT P6SM VCTS SCT030CB BKN050 PROB30 0221/0301 3SM
      TSRA BKN025CB
     FM030200 16003KT P6SM FEW060 BKN200=



000
FTUS44 KLCH 020900 AAA
TAFAEX
TAF AMD
KAEX 020927Z 0209/0306 14004KT P6SM SCT005 SCT020
      TEMPO 0210/0213 4SM BR BKN005
     FM021400 15006KT P6SM BKN020
     FM021600 17008KT P6SM SCT035
     FM021900 17009KT P6SM VCSH SCT030 BKN050 PROB30 0220/0224 3SM
      SHRA BKN030
     FM030100 15005KT P6SM FEW060 BKN200=



000
FTUS44 KLCH 020800 AAA
TAFLCH
TAF AMD
KLCH 020838Z 0209/0306 14005KT P6SM VCTS SCT025CB SCT050 SCT200
     FM021400 15007KT P6SM SCT025 BKN035
     FM021800 16010KT P6SM VCSH SCT030 BKN050 PROB30 0219/0223 3SM
      SHRA BKN030
     FM030100 VRB03KT P6SM FEW060 BKN200=



000
FTUS44 KLCH 020500
TAFAEX
TAF
KAEX 020520Z 0206/0306 14005KT P6SM FEW025 SCT250
     FM020900 00000KT 5SM BR FEW012
     FM021400 15006KT P6SM BKN020
     FM021600 17008KT P6SM SCT035
     FM021900 17009KT P6SM VCSH SCT030 BKN050 PROB30 0220/0224 3SM
      SHRA BKN030
     FM030100 15005KT P6SM FEW060 BKN200=



000
FTUS44 KLCH 020500
TAFLCH
TAF
KLCH 020520Z 0206/0306 14005KT P6SM FEW025 SCT200
     FM021400 15007KT P6SM SCT025 BKN035
     FM021800 16010KT P6SM VCSH SCT030 BKN050 PROB30 0219/0223 3SM
      SHRA BKN030
     FM030100 VRB03KT P6SM FEW060 BKN200=



000
FTUS44 KLCH 020500
TAFLFT
TAF
KLFT 020520Z 0206/0306 00000KT P6SM FEW025 BKN200
     FM021400 17004KT P6SM SCT025 BKN035
     FM021800 17008KT P6SM VCSH SCT030 BKN050 PROB30 0219/0224 3SM
      SHRA BKN030
     FM030100 VRB03KT P6SM FEW060 BKN200=



000
FTUS44 KLCH 020500
TAFARA
TAF
KARA 020520Z 0206/0306 15005KT P6SM FEW025 BKN200
     FM021400 16008KT P6SM SCT025 BKN035
     FM021800 16010KT P6SM VCSH SCT030 BKN050 PROB30 0219/0224 3SM
      SHRA BKN030
     FM030100 VRB03KT P6SM FEW060 BKN200=



000
FTUS44 KLCH 020500
TAFBPT
TAF
KBPT 020520Z 0206/0306 15007KT P6SM FEW025 SCT200
     FM021500 15010KT P6SM SCT025 BKN035
     FM021800 14012KT P6SM VCSH SCT030 BKN050 PROB30 0219/0223 3SM
      SHRA BKN030
     FM030100 14008KT P6SM FEW060 BKN200=



000
FTUS44 KLCH 012300
TAFLCH
TAF
KLCH 012331Z 0200/0224 16008KT P6SM VCSH FEW012 SCT025 BKN040
      TEMPO 0200/0201 6SM -SHRA
     FM020200 15005KT P6SM FEW060 BKN250
     FM020500 14004KT P6SM FEW025 BKN035
     FM021600 16010KT P6SM VCSH SCT025 BKN050=



000
FTUS44 KLCH 012300
TAFARA
TAF
KARA 012331Z 0200/0224 18010KT P6SM VCSH FEW012 SCT025 BKN040
      TEMPO 0200/0202 6SM -SHRA
     FM020200 16008KT P6SM FEW060 BKN250
     FM020500 15004KT P6SM FEW025 BKN035
     FM021600 17010KT P6SM VCSH SCT025 BKN050=



000
FTUS44 KLCH 012300
TAFLFT
TAF
KLFT 012331Z 0200/0224 18007KT P6SM VCSH FEW012 SCT025 BKN040
      TEMPO 0200/0202 6SM -SHRA
     FM020200 16005KT P6SM FEW060 BKN250
     FM020500 00000KT P6SM FEW025 BKN035
     FM021600 17008KT P6SM VCSH SCT025 BKN050=



000
FTUS44 KLCH 012300
TAFBPT
TAF
KBPT 012331Z 0200/0224 15008KT P6SM VCSH FEW012 SCT025 BKN040
      TEMPO 0200/0201 6SM -SHRA
     FM020200 14006KT P6SM FEW060 BKN250
     FM020600 14004KT P6SM FEW025 BKN035
     FM021500 15010KT P6SM VCSH SCT025 BKN050=



000
FTUS44 KLCH 012300
TAFAEX
TAF
KAEX 012331Z 0200/0224 15007KT P6SM VCTS SCT035CB BKN250
     FM020200 15004KT P6SM FEW025 SCT250
     FM020900 00000KT P6SM BKN025
     FM021400 17006KT P6SM BKN035
     FM021900 17009KT P6SM VCSH SCT030 BKN050=



000
FTUS44 KLCH 012000 AAA
TAFLFT
TAF AMD
KLFT 012037Z 0121/0218 18011KT P6SM VCTS FEW035CB
     FM020100 17004KT P6SM BKN250=



000
FTUS44 KLCH 012000 AAB
TAFAEX
TAF AMD
KAEX 012037Z 0121/0218 16011KT P6SM VCTS FEW035CB
     FM020100 16004KT P6SM BKN250=



000
FTUS44 KLCH 012000 AAA
TAFARA
TAF AMD
KARA 012037Z 0121/0218 18010KT P6SM VCTS FEW030CB
     FM020100 17004KT P6SM BKN250=



000
FTUS44 KLCH 012000 AAA
TAFBPT
TAF AMD
KBPT 012036Z 0121/0218 17012KT P6SM VCTS FEW024CB BKN050
     FM020100 15005KT P6SM BKN250=



000
FTUS44 KLCH 012000 AAA
TAFLCH
TAF AMD
KLCH 012036Z 0121/0218 16008KT P6SM VCTS SCT025CB BKN060
     FM020100 15005KT P6SM BKN250=



000
FTUS44 KLCH 011800 AAA
TAFAEX
TAF AMD
KAEX 011859Z 0119/0218 14010KT P6SM VCTS SCT035CB
      TEMPO 0120/0124 5SM -TSRA BKN025CB
     FM020200 16004KT P6SM BKN250=



000
FTUS44 KLCH 011700
TAFBPT
TAF
KBPT 011721Z 0118/0218 16011KT P6SM VCTS FEW026CB SCT045
      TEMPO 0120/0124 5SM -TSRA BKN025CB
     FM020100 15005KT P6SM BKN250=



000
FTUS44 KLCH 011700
TAFAEX
TAF
KAEX 011721Z 0118/0218 16012KT P6SM VCTS FEW015CB
      TEMPO 0118/0121 P6SM TS BKN025CB
     FM020200 16004KT P6SM BKN250=



000
FTUS44 KLCH 011700
TAFARA
TAF
KARA 011721Z 0118/0218 16011KT P6SM VCTS FEW030CB
      TEMPO 0120/0124 5SM -TSRA BKN025CB
     FM020100 17004KT P6SM BKN250=



000
FTUS44 KLCH 011700
TAFLFT
TAF
KLFT 011721Z 0118/0218 17010KT P6SM VCTS FEW035CB
      TEMPO 0120/0124 5SM -TSRA BKN025CB
     FM020100 17004KT P6SM BKN250=



000
FTUS44 KLCH 011700
TAFLCH
TAF
KLCH 011721Z 0118/0218 15014G18KT P6SM VCTS SCT027CB BKN040
      TEMPO 0120/0124 5SM -TSRA BKN025CB
     FM020100 15005KT P6SM BKN250=



000
FTUS44 KLCH 011400 AAA
TAFARA
TAF AMD
KARA 011413Z 0114/0212 13008KT P6SM SCT020
     FM011600 17008KT P6SM VCTS BKN035CB
     FM020100 17004KT P6SM BKN250=



000
FTUS44 KLCH 011300 AAA
TAFLFT
TAF AMD
KLFT 011332Z 0114/0212 VRB04KT P6SM VCSH SCT020
     FM011600 17008KT P6SM VCTS BKN035CB
     FM020100 17004KT P6SM BKN250=



000
FTUS44 KLCH 011300 AAA
TAFLCH
TAF AMD
KLCH 011331Z 0114/0212 13006KT P6SM VCSH SCT035
     FM011600 16010KT P6SM VCTS BKN035CB
     FM020100 15005KT P6SM BKN250=



000
FTUS44 KLCH 011300 AAA
TAFBPT
TAF AMD
KBPT 011331Z 0114/0212 11003KT P6SM VCSH SCT025
     FM011600 16010KT P6SM VCTS BKN035CB
     FM020100 15005KT P6SM BKN250=



000
FTUS44 KLCH 011100
TAFARA
TAF
KARA 011129Z 0112/0212 VRB04KT 6SM BR SCT002 SCT025
      TEMPO 0112/0113 3SM BR BKN002 BKN020
     FM011300 13005KT P6SM VCSH SCT008 BKN025
     FM011600 17008KT P6SM VCTS BKN035CB PROB30 0121/0124 2SM TSRA
      BKN025CB
     FM020100 17004KT P6SM BKN250=



000
FTUS44 KLCH 011100
TAFBPT
TAF
KBPT 011129Z 0112/0212 VRB03KT P6SM VCSH SCT025
      TEMPO 0112/0115 BKN025
     FM011600 16010KT P6SM VCTS BKN035CB PROB30 0121/0124 2SM TSRA
      BKN025CB
     FM020100 15005KT P6SM BKN250=



000
FTUS44 KLCH 011100
TAFLCH
TAF
KLCH 011129Z 0112/0212 VRB03KT P6SM VCSH SCT025
      TEMPO 0112/0115 BKN025
     FM011600 16010KT P6SM VCTS BKN035CB PROB30 0121/0124 2SM TSRA
      BKN025CB
     FM020100 15005KT P6SM BKN250=



000
FTUS44 KLCH 011100
TAFLFT
TAF
KLFT 011129Z 0112/0212 VRB03KT 5SM BR BKN002 OVC020
      TEMPO 0112/0113 3SM BR
     FM011300 13005KT P6SM VCSH SCT008 BKN025
     FM011600 17008KT P6SM VCTS BKN035CB PROB30 0121/0124 2SM TSRA
      BKN025CB
     FM020100 17004KT P6SM BKN250=



000
FTUS44 KLCH 011100
TAFAEX
TAF
KAEX 011129Z 0112/0212 13004KT 6SM BR BKN004 BKN015
      TEMPO 0112/0114 4SM BR SCT005 BKN025
     FM011400 15007KT P6SM BKN025
     FM011800 16010KT P6SM VCTS BKN035CB PROB30 0121/0201 2SM TSRA
      BKN025CB
     FM020200 16004KT P6SM BKN250=



000
FTUS44 KLCH 011000 AAA
TAFAEX
TAF AMD
KAEX 011029Z 0110/0206 15003KT 6SM BR SCT006 BKN025
      TEMPO 0110/0113 4SM BR BKN005 OVC020
     FM011400 16007KT P6SM BKN025
     FM011800 16008KT P6SM VCTS BKN035CB PROB30 0119/0123 2SM TSRA
      BKN025CB
     FM020100 16005KT P6SM BKN250=



000
FTUS44 KLCH 011000 AAB
TAFLFT
TAF AMD
KLFT 011007Z 0110/0206 00000KT 5SM BR SCT002 BKN025
      TEMPO 0110/0113 3SM BR BKN002 OVC015
     FM011300 15005KT P6SM VCSH BKN025
     FM011800 17008KT P6SM VCTS BKN035CB PROB30 0119/0123 2SM TSRA
      BKN025CB
     FM020100 17004KT P6SM BKN250=



000
FTUS44 KLCH 010900 AAA
TAFLFT
TAF AMD
KLFT 010906Z 0109/0206 VRB03KT 5SM BR SCT003 BKN025
     FM011400 15007KT P6SM VCSH BKN025
     FM011800 17008KT P6SM VCTS BKN035CB PROB30 0119/0123 2SM TSRA
      BKN025CB
     FM020100 17004KT P6SM BKN250=



000
FTUS44 KLCH 010700 AAA
TAFLCH
TAF AMD
KLCH 010758Z 0108/0206 15004KT P6SM VCSH SCT025 SCT250
     FM011400 15007KT P6SM VCSH BKN025
     FM011800 17008KT P6SM VCTS BKN035CB PROB30 0119/0123 2SM TSRA
      BKN025CB
     FM020100 17004KT P6SM BKN250=



000
FTUS44 KLCH 010500
TAFARA
TAF
KARA 010520Z 0106/0206 13003KT P6SM SCT025 SCT250
     FM011400 15007KT P6SM VCSH BKN025
     FM011800 17008KT P6SM VCTS BKN035CB PROB30 0119/0123 2SM TSRA
      BKN025CB
     FM020100 17004KT P6SM BKN250=



000
FTUS44 KLCH 010500
TAFLFT
TAF
KLFT 010520Z 0106/0206 13003KT P6SM SCT025 SCT250
     FM011400 15007KT P6SM VCSH BKN025
     FM011800 17008KT P6SM VCTS BKN035CB PROB30 0119/0123 2SM TSRA
      BKN025CB
     FM020100 17004KT P6SM BKN250=



000
FTUS44 KLCH 010500
TAFAEX
TAF
KAEX 010520Z 0106/0206 15003KT P6SM SCT250
     FM011400 16007KT P6SM BKN025
     FM011800 16008KT P6SM VCTS BKN035CB PROB30 0119/0123 2SM TSRA
      BKN025CB
     FM020100 16005KT P6SM BKN250=



000
FTUS44 KLCH 010500
TAFBPT
TAF
KBPT 010520Z 0106/0206 14004KT P6SM SCT025 SCT250
     FM011400 15007KT P6SM VCSH BKN025
     FM011800 16010KT P6SM VCTS BKN035CB PROB30 0119/0123 2SM TSRA
      BKN025CB
     FM020100 16005KT P6SM BKN250=



000
FTUS44 KLCH 010500
TAFLCH
TAF
KLCH 010520Z 0106/0206 13003KT P6SM SCT025 SCT250
     FM011400 15007KT P6SM VCSH BKN025
     FM011800 17008KT P6SM VCTS BKN035CB PROB30 0119/0123 2SM TSRA
      BKN025CB
     FM020100 17004KT P6SM BKN250=



000
FTUS44 KLCH 312300
TAFARA
TAF
KARA 312325Z 0100/0124 18008KT P6SM VCSH SCT040 BKN150
     FM010200 VRB03KT P6SM SCT150
     FM011400 17006KT P6SM VCSH SCT025
     FM011800 18009KT P6SM VCTS SCT035CB=



000
FTUS44 KLCH 312300
TAFLFT
TAF
KLFT 312325Z 0100/0124 18008KT P6SM VCSH SCT040 BKN150
     FM010200 VRB03KT P6SM SCT150
     FM011400 17006KT P6SM VCSH SCT025
     FM011800 18009KT P6SM VCTS SCT035CB=



000
FTUS44 KLCH 312300
TAFAEX
TAF
KAEX 312325Z 0100/0124 14004KT P6SM VCSH SCT040 BKN100
     FM010200 13003KT P6SM SCT100
     FM011400 17008KT P6SM SCT025
     FM011800 17010KT P6SM VCTS SCT035CB=



000
FTUS44 KLCH 312300
TAFBPT
TAF
KBPT 312325Z 0100/0124 14007KT P6SM VCSH SCT030 BKN150
     FM010200 14005KT P6SM SCT150
     FM011400 17008KT P6SM VCSH SCT025
     FM011800 17011KT P6SM VCTS SCT035CB=



000
FTUS44 KLCH 312300
TAFLCH
TAF
KLCH 312325Z 0100/0124 17004KT P6SM VCSH SCT035 BKN150
     FM010200 14004KT P6SM SCT150
     FM011400 17008KT P6SM VCSH SCT025
     FM011800 18009KT P6SM VCTS SCT035CB=



000
FTUS44 KLCH 312100 AAB
TAFAEX
TAF AMD
KAEX 312140Z 3122/0118 16006KT P6SM VCTS SCT035CB BKN050
      TEMPO 3122/3124 VRB15G30KT 2SM TSRA BKN025CB
     FM010200 15004KT P6SM SCT025 BKN050
     FM010900 15003KT P6SM OVC015=



000
FTUS44 KLCH 312000 AAA
TAFLFT
TAF AMD
KLFT 312047Z 3121/0118 18009KT P6SM VCTS SCT035CB BKN050
     FM010100 16003KT P6SM OVC050
     FM011500 15007KT P6SM VCTS SCT035CB BKN250=



000
FTUS44 KLCH 312000 AAA
TAFARA
TAF AMD
KARA 312047Z 3121/0118 18011KT P6SM VCTS FEW035CB SCT050
     FM010100 16003KT P6SM OVC050
     FM011500 15007KT P6SM VCTS SCT035CB BKN250=



000
FTUS44 KLCH 312000 AAA
TAFLCH
TAF AMD
KLCH 312046Z 3121/0118 17010KT P6SM VCTS SCT035CB BKN050
     FM010100 15005KT P6SM SCT025 BKN050
     FM011400 13008KT P6SM VCTS SCT025CB=



000
FTUS44 KLCH 312000 AAA
TAFAEX
TAF AMD
KAEX 312046Z 3121/0118 16006KT P6SM VCTS SCT035CB BKN050
     FM010200 15004KT P6SM SCT025 BKN050
     FM010900 15003KT P6SM OVC015=



000
FTUS44 KLCH 312000 AAA
TAFBPT
TAF AMD
KBPT 312045Z 3121/0118 16011KT P6SM VCTS SCT030CB BKN050
      TEMPO 3121/3123 VRB12KT BKN025CB
     FM011000 15005KT P6SM SCT025 BKN050
     FM011400 14008KT P6SM VCTS SCT025CB=



000
FTUS44 KLCH 311700
TAFAEX
TAF
KAEX 311729Z 3118/0118 16007KT P6SM VCTS SCT025CB BKN050
      TEMPO 3119/3123 4SM -TSRA BKN025CB
     FM010200 15004KT P6SM SCT025 BKN050
     FM010900 15003KT P6SM OVC015=



000
FTUS44 KLCH 311700
TAFBPT
TAF
KBPT 311729Z 3118/0118 16011KT P6SM VCTS SCT025CB BKN050
      TEMPO 3118/3122 BKN025CB
     FM011000 15005KT P6SM SCT025 BKN050
     FM011400 14008KT P6SM VCTS SCT025CB=



000
FTUS44 KLCH 311700
TAFLCH
TAF
KLCH 311729Z 3118/0118 16011KT P6SM VCTS FEW015 SCT025CB BKN050
      TEMPO 3118/3122 BKN025CB
     FM010100 15005KT P6SM SCT025 BKN050
     FM011400 13008KT P6SM VCTS SCT025CB=



000
FTUS44 KLCH 311700
TAFLFT
TAF
KLFT 311729Z 3118/0118 18007KT P6SM VCTS SCT015 SCT025CB BKN050
      TEMPO 3118/3122 BKN025CB
     FM010100 16003KT P6SM OVC050
     FM011500 15007KT P6SM VCTS SCT035CB BKN250=



000
FTUS44 KLCH 311700
TAFARA
TAF
KARA 311729Z 3118/0118 18007KT P6SM VCTS SCT015 SCT025CB BKN050
      TEMPO 3118/3122 BKN025CB
     FM010100 16003KT P6SM OVC050
     FM011500 15007KT P6SM VCTS SCT035CB BKN250=



000
FTUS44 KLCH 311500 AAC
TAFAEX
TAF AMD
KAEX 311534Z 3116/0112 14007KT P6SM BKN006 BKN050
     FM311700 16007KT P6SM VCTS SCT025CB BKN050
      TEMPO 3118/3122 4SM -TSRA BKN035CB
     FM010900 15003KT 5SM BR OVC015=



000
FTUS44 KLCH 311200 AAB
TAFAEX
TAF AMD
KAEX 311218Z 3112/0112 15004KT P6SM VCSH SCT025 OVC090
     FM311400 15005KT P6SM SCT025 BKN050
     FM311700 17008KT P6SM VCTS SCT025CB BKN050
      TEMPO 3118/3122 4SM -TSRA BKN035CB
     FM010900 15003KT 5SM BR OVC015=



000
FTUS44 KLCH 311200 AAA
TAFAEX
TAF AMD
KAEX 311202Z 3112/0112 15004KT P6SM VCSH BKN025 OVC090
     FM311400 15005KT P6SM SCT025 BKN050
     FM311700 17008KT P6SM VCTS SCT025CB BKN050
      TEMPO 3118/3122 4SM -TSRA BKN035CB
     FM010900 15003KT 5SM BR OVC015=



000
FTUS44 KLCH 311100
TAFARA
TAF
KARA 311139Z 3112/0112 10004KT P6SM VCSH SCT035 BKN120
     FM311400 18004KT P6SM VCSH SCT025 BKN050
     FM311800 18007KT P6SM VCTS SCT025CB BKN050
      TEMPO 3118/3122 4SM -TSRA SCT035CB BKN050
     FM010000 16005KT P6SM OVC100=



000
FTUS44 KLCH 311100
TAFAEX
TAF
KAEX 311139Z 3112/0112 15004KT P6SM VCSH BKN006 BKN015 OVC100
     FM311400 15005KT P6SM SCT025 BKN050
     FM311700 17008KT P6SM VCTS SCT025CB BKN050
      TEMPO 3118/3122 4SM -TSRA BKN035CB
     FM010900 15003KT 5SM BR OVC015=



000
FTUS44 KLCH 311100
TAFLFT
TAF
KLFT 311139Z 3112/0112 10004KT P6SM VCSH SCT035 BKN120
     FM311400 18004KT P6SM VCSH SCT035 BKN050
     FM311800 18007KT P6SM VCTS SCT025CB BKN050
      TEMPO 3118/3122 4SM -TSRA SCT035CB BKN050
     FM010000 16005KT P6SM OVC100=



000
FTUS44 KLCH 311100
TAFBPT
TAF
KBPT 311139Z 3112/0112 15005KT P6SM VCSH SCT035 BKN120
     FM311500 14006KT P6SM VCTS SCT035CB BKN050
      TEMPO 3115/3119 4SM -TSRA SCT035CB
     FM312000 16011KT P6SM VCTS SCT035CB BKN050
      TEMPO 3120/3124 4SM -TSRA BKN035CB=



000
FTUS44 KLCH 311100
TAFLCH
TAF
KLCH 311139Z 3112/0112 13004KT P6SM SCT100 BKN120
     FM311400 13005KT P6SM VCSH SCT035 BKN050
     FM311800 16009KT P6SM VCTS SCT035CB BKN050
      TEMPO 3118/3122 4SM -TSRA BKN035CB
     FM010000 15006KT P6SM SCT250=



    US Dept of Commerce
    National Oceanic and Atmospheric Administration
    National Weather Service
    1325 East West Highway
    Silver Spring, MD 20910
    Page Author: NWS Internet Services Team
Disclaimer
Information Quality
Credits
Glossary
Privacy Policy
Freedom of Information Act (FOIA)
About Us
Career Opportunities